Time;durP1;ratioP1;P1;durP2;ratioP2;P2;SDS_P1;SDS_P2;PMS_P1;PMS_P2;Temp;Humidity;BMP_temperature;BMP_pressure;BME280_temperature;BME280_humidity;BME280_pressure;Samples;Min_cycle;Max_cycle;Signal;HPM_P1;HPM_P2
2022/12/05 00:03:54;;;;;;;78.10;30.08;;;;;;;2.65;66.19;99806.22;10435285;28;20788;-67
2022/12/05 00:08:57;;;;;;;85.15;31.30;;;;;;;2.58;66.15;99815.03;10434647;28;20056;-67
2022/12/05 00:14:00;;;;;;;82.10;31.30;;;;;;;2.49;66.00;99811.88;10433165;28;20600;-68
2022/12/05 00:19:04;;;;;;;91.60;30.75;;;;;;;2.40;66.24;99812.97;10460383;28;20052;-67
2022/12/05 00:24:09;;;;;;;103.65;31.65;;;;;;;2.34;66.16;99823.47;10432429;28;20488;-67
2022/12/05 00:29:11;;;;;;;60.05;26.08;;;;;;;2.27;66.14;99818.53;10432359;28;20048;-67
2022/12/05 00:34:13;;;;;;;53.00;23.95;;;;;;;2.19;66.31;99829.06;10426581;28;20490;-67
2022/12/05 00:39:15;;;;;;;62.97;26.25;;;;;;;2.19;66.29;99819.56;10429395;28;20389;-67
2022/12/05 00:44:16;;;;;;;63.60;25.40;;;;;;;2.16;66.18;99813.66;10432619;28;20049;-67
2022/12/05 00:49:18;;;;;;;407.67;38.40;;;;;;;2.10;66.28;99826.72;10435197;28;20049;-67
2022/12/05 00:54:20;;;;;;;116.30;27.90;;;;;;;2.09;66.36;99827.63;10430836;28;20552;-68
2022/12/05 00:59:22;;;;;;;104.50;25.73;;;;;;;2.10;66.39;99829.31;10438698;28;20519;-67
2022/12/05 01:04:25;;;;;;;125.55;26.10;;;;;;;2.09;66.34;99836.19;10430012;28;20053;-67
2022/12/05 01:09:27;;;;;;;66.05;21.67;;;;;;;2.09;66.41;99848.28;10426724;28;20049;-67
2022/12/05 01:14:28;;;;;;;51.20;22.42;;;;;;;2.07;66.37;99848.28;10429224;28;20508;-67
2022/12/05 01:19:31;;;;;;;41.17;21.50;;;;;;;2.08;66.37;99849.16;10429358;28;20044;-67
2022/12/05 01:24:33;;;;;;;44.35;22.10;;;;;;;2.06;66.38;99862.09;10430590;28;20390;-67
2022/12/05 01:29:35;;;;;;;53.90;22.58;;;;;;;2.06;66.31;99856.06;10437673;28;20537;-67
2022/12/05 01:34:36;;;;;;;55.97;23.00;;;;;;;2.02;66.44;99859.63;10431727;28;20041;-67
2022/12/05 01:39:38;;;;;;;39.53;20.52;;;;;;;2.02;66.61;99872.53;10434658;28;20946;-67
2022/12/05 01:44:39;;;;;;;50.95;22.42;;;;;;;2.03;66.42;99874.22;10433812;28;20056;-67
2022/12/05 01:49:41;;;;;;;34.83;19.83;;;;;;;1.99;66.45;99867.47;10425258;28;20194;-68
2022/12/05 01:54:47;;;;;;;32.28;19.15;;;;;;;2.02;66.48;99877.69;10428688;28;20041;-67
2022/12/05 01:59:54;;;;;;;37.70;20.42;;;;;;;2.02;66.36;99877.69;10426346;28;20449;-68
2022/12/05 02:05:10;;;;;;;37.90;19.13;;;;;;;1.91;66.56;99877.13;10427864;28;20127;-68
2022/12/05 02:10:12;;;;;;;72.13;23.75;;;;;;;1.87;66.62;99880.66;10432236;28;20053;-67
2022/12/05 02:15:42;;;;;;;38.55;19.95;;;;;;;1.89;66.74;99871.16;10431754;28;20060;-66
2022/12/05 02:21:03;;;;;;;37.63;19.17;;;;;;;1.94;66.93;99882.19;10429374;28;20040;-67
2022/12/05 02:26:24;;;;;;;38.50;19.98;;;;;;;1.96;66.63;99880.41;10437218;28;20053;-66
2022/12/05 02:31:40;;;;;;;49.47;22.10;;;;;;;1.97;66.62;99884.72;10428492;28;20083;-67
2022/12/05 02:36:49;;;;;;;40.47;20.85;;;;;;;1.98;66.78;99889.81;10425053;28;20413;-67
2022/12/05 02:41:59;;;;;;;47.20;22.88;;;;;;;2.01;66.58;99881.16;10429577;28;20060;-67
2022/12/05 02:47:05;;;;;;;48.30;24.58;;;;;;;1.99;66.63;99882.94;10428170;28;20053;-66
2022/12/05 02:52:13;;;;;;;47.05;22.75;;;;;;;2.01;66.49;99876.81;10431012;28;20053;-66
2022/12/05 02:57:16;;;;;;;34.15;19.40;;;;;;;2.03;66.40;99871.66;10437011;28;20311;-66
2022/12/05 03:02:27;;;;;;;59.47;24.13;;;;;;;1.98;66.42;99876.06;10436145;28;20040;-66
2022/12/05 03:07:30;;;;;;;44.03;21.42;;;;;;;1.94;66.43;99871.88;10452335;28;20048;-66
2022/12/05 03:12:41;;;;;;;41.95;20.98;;;;;;;1.94;66.58;99874.44;10442906;28;20306;-66
2022/12/05 03:17:51;;;;;;;35.53;19.67;;;;;;;1.95;66.58;99873.59;10446021;28;20405;-66
2022/12/05 03:22:58;;;;;;;33.05;19.17;;;;;;;1.91;66.65;99872.78;10448769;28;20517;-66
2022/12/05 03:28:24;;;;;;;38.35;19.42;;;;;;;1.89;66.63;99877.13;10449478;28;20914;-66
2022/12/05 03:33:34;;;;;;;34.80;18.20;;;;;;;1.94;66.62;99880.47;10433164;28;20056;-66
2022/12/05 03:39:02;;;;;;;34.85;17.77;;;;;;;1.86;66.70;99878.97;10441951;28;20060;-66
2022/12/05 03:44:12;;;;;;;42.35;19.38;;;;;;;1.93;66.68;99888.25;10432853;28;20049;-67
2022/12/05 03:49:24;;;;;;;39.13;18.05;;;;;;;1.96;66.66;99896.75;10443148;28;20055;-66
2022/12/05 03:54:43;;;;;;;27.02;16.80;;;;;;;1.97;66.56;99895.03;10433814;28;20338;-66
2022/12/05 03:59:56;;;;;;;39.85;18.65;;;;;;;2.00;66.52;99902.66;10440347;28;21841;-66
2022/12/05 04:05:08;;;;;;;38.85;18.65;;;;;;;1.99;66.71;99899.22;10430322;28;20049;-67
2022/12/05 04:10:18;;;;;;;31.92;17.77;;;;;;;1.96;66.61;99906.22;10427081;28;20056;-66
2022/12/05 04:15:25;;;;;;;26.33;16.80;;;;;;;1.95;66.71;99907.09;10434366;28;20349;-66
2022/12/05 04:25:56;;;;;;;29.88;16.38;;;;;;;1.98;66.56;99919.91;10425294;28;20052;-66
2022/12/05 04:31:14;;;;;;;24.70;14.95;;;;;;;1.95;66.60;99920.81;10429558;28;20374;-66
2022/12/05 04:36:24;;;;;;;34.83;17.25;;;;;;;1.96;66.53;99919.97;10435121;28;20412;-67
2022/12/05 04:41:33;;;;;;;27.40;15.90;;;;;;;1.85;66.48;99921.09;10492088;28;20231;-66
2022/12/05 04:46:39;;;;;;;24.98;15.40;;;;;;;1.69;66.98;99927.50;10433494;28;20051;-67
2022/12/05 04:51:43;;;;;;;42.05;17.50;;;;;;;1.63;67.04;99925.94;10450700;28;21205;-66
2022/12/05 04:56:47;;;;;;;23.80;14.77;;;;;;;1.59;67.30;99923.44;10438509;28;20059;-66
2022/12/05 05:01:56;;;;;;;25.92;15.45;;;;;;;1.57;67.54;99930.38;10441003;28;20045;-65
2022/12/05 05:06:58;;;;;;;32.72;17.20;;;;;;;1.74;67.46;99941.16;10444672;28;20052;-66
2022/12/05 05:12:00;;;;;;;44.25;19.65;;;;;;;1.85;67.00;99936.56;10433891;28;20047;-67
2022/12/05 05:17:02;;;;;;;42.97;19.73;;;;;;;1.89;66.92;99943.38;10431198;28;20497;-65
2022/12/05 05:22:03;;;;;;;33.67;17.95;;;;;;;1.86;67.01;99944.28;10432097;28;20300;-65
2022/12/05 05:27:05;;;;;;;30.70;17.42;;;;;;;1.90;66.83;99939.88;10430496;28;20064;-67
2022/12/05 05:32:06;;;;;;;34.30;17.70;;;;;;;1.95;66.92;99954.34;10430917;28;20056;-67
2022/12/05 05:37:08;;;;;;;33.85;19.02;;;;;;;1.94;66.67;99951.81;10429550;28;20398;-67
2022/12/05 05:42:10;;;;;;;37.35;18.35;;;;;;;1.86;66.75;99958.91;10432217;28;20048;-67
2022/12/05 05:47:11;;;;;;;31.08;17.52;;;;;;;1.89;66.89;99958.84;10429984;28;20223;-66
2022/12/05 05:52:13;;;;;;;35.05;19.00;;;;;;;1.94;66.88;99960.41;10431076;28;20059;-66
2022/12/05 05:57:14;;;;;;;34.92;18.42;;;;;;;1.96;66.78;99968.09;10435587;28;20053;-67
2022/12/05 06:02:21;;;;;;;34.95;17.60;;;;;;;1.89;66.75;99969.97;10430036;28;20843;-68
2022/12/05 06:07:22;;;;;;;30.65;16.98;;;;;;;1.96;66.90;99971.53;10429034;28;20076;-67
2022/12/05 06:12:24;;;;;;;32.50;18.02;;;;;;;1.88;66.71;99977.75;10447225;28;20075;-66
2022/12/05 06:17:26;;;;;;;34.38;19.60;;;;;;;1.72;67.22;99981.59;10429764;28;20067;-67
2022/12/05 06:22:29;;;;;;;38.28;19.50;;;;;;;1.85;67.18;99980.41;10461145;28;20045;-66
2022/12/05 06:27:31;;;;;;;42.13;19.30;;;;;;;1.93;66.89;99981.91;10428038;28;20527;-66
2022/12/05 06:32:32;;;;;;;80.97;20.25;;;;;;;1.93;66.94;99981.91;10434949;28;20045;-67
2022/12/05 06:37:36;;;;;;;111.78;19.52;;;;;;;1.94;66.79;99983.63;10431011;28;20061;-66
2022/12/05 06:42:37;;;;;;;94.93;20.30;;;;;;;1.97;66.90;99990.44;10428966;28;20052;-67
2022/12/05 06:47:39;;;;;;;36.85;15.65;;;;;;;1.96;66.89;99989.59;10427951;28;20056;-67
2022/12/05 06:52:40;;;;;;;30.83;16.83;;;;;;;1.95;66.72;99995.63;10427791;28;20548;-67
2022/12/05 06:57:42;;;;;;;57.83;20.70;;;;;;;1.84;66.86;100007.06;10430461;28;20101;-66
2022/12/05 07:02:44;;;;;;;26.80;15.32;;;;;;;1.72;67.03;100005.63;10427738;28;20049;-67
2022/12/05 07:07:45;;;;;;;28.65;16.38;;;;;;;1.69;67.17;100005.69;10428980;28;20402;-67
2022/12/05 07:12:47;;;;;;;32.75;18.05;;;;;;;1.76;67.47;100004.69;10432706;28;20068;-66
2022/12/05 07:17:49;;;;;;;32.63;18.02;;;;;;;1.89;67.09;100002.69;10427663;28;20041;-67
2022/12/05 07:22:50;;;;;;;28.92;16.08;;;;;;;1.94;66.80;100012.00;10427257;28;20397;-66
2022/12/05 07:27:52;;;;;;;31.88;17.75;;;;;;;1.87;66.86;100009.59;10436976;28;20053;-66
2022/12/05 07:32:54;;;;;;;35.40;17.45;;;;;;;1.73;67.13;100020.22;10425673;28;20057;-67
2022/12/05 07:37:55;;;;;;;48.25;20.10;;;;;;;1.71;67.19;100028.84;10427163;28;20090;-66
2022/12/05 07:42:57;;;;;;;29.63;17.77;;;;;;;1.86;67.37;100036.25;10427774;28;20053;-67
2022/12/05 07:47:58;;;;;;;29.13;16.80;;;;;;;2.02;66.68;100033.28;10423635;28;20053;-66
2022/12/05 07:53:00;;;;;;;31.88;18.17;;;;;;;2.13;66.62;100031.28;10439077;28;20661;-67
2022/12/05 07:58:02;;;;;;;31.92;17.42;;;;;;;2.21;66.62;100031.94;10428767;28;20056;-67
2022/12/05 08:03:04;;;;;;;39.97;19.38;;;;;;;2.27;66.46;100030.97;10426218;28;20048;-66
2022/12/05 08:08:05;;;;;;;33.42;17.75;;;;;;;2.13;66.53;100025.31;10433954;28;20045;-66
2022/12/05 08:13:07;;;;;;;45.90;21.90;;;;;;;2.08;66.59;100040.03;10434629;28;20056;-66
2022/12/05 08:18:09;;;;;;;33.75;18.40;;;;;;;2.21;66.76;100051.75;10433337;28;20045;-66
2022/12/05 08:23:10;;;;;;;32.45;17.67;;;;;;;2.36;66.42;100053.97;10443793;28;20045;-67
2022/12/05 08:28:12;;;;;;;33.63;17.63;;;;;;;2.53;66.06;100059.56;10434333;28;20053;-66
2022/12/05 08:33:14;;;;;;;32.15;18.55;;;;;;;2.64;66.01;100072.19;10431851;28;20041;-66
2022/12/05 08:38:15;;;;;;;93.53;25.00;;;;;;;2.60;65.79;100081.75;10432770;28;20500;-67
2022/12/05 08:43:17;;;;;;;111.30;27.67;;;;;;;2.45;66.04;100089.88;10429565;28;20051;-68
2022/12/05 08:48:19;;;;;;;35.88;20.92;;;;;;;2.33;66.45;100104.81;10431249;28;20056;-68
2022/12/05 08:53:28;;;;;;;35.22;20.52;;;;;;;2.53;66.19;100107.75;10429449;28;20059;-67
2022/12/05 08:58:30;;;;;;;31.63;19.77;;;;;;;2.67;65.84;100119.44;10431103;28;20071;-67
2022/12/05 09:03:32;;;;;;;30.75;19.67;;;;;;;2.69;65.68;100121.97;10442407;28;20049;-67
2022/12/05 09:08:35;;;;;;;40.63;22.50;;;;;;;2.60;65.88;100115.31;10437703;28;20493;-68
2022/12/05 09:13:37;;;;;;;34.92;20.65;;;;;;;2.36;66.44;100115.06;10470458;28;20068;-67
2022/12/05 09:18:39;;;;;;;37.70;21.17;;;;;;;2.48;66.42;100107.84;10434950;28;20334;-67
2022/12/05 09:23:41;;;;;;;32.83;20.02;;;;;;;2.55;66.27;100112.00;10428201;28;20041;-71
2022/12/05 09:28:43;;;;;;;44.67;22.23;;;;;;;2.85;65.88;100116.41;10429692;28;20055;-71
2022/12/05 09:33:47;;;;;;;39.00;21.17;;;;;;;2.98;65.54;100132.44;10442749;28;20041;-72
2022/12/05 09:38:49;;;;;;;36.38;20.88;;;;;;;2.97;65.45;100141.06;10429316;28;20053;-70
2022/12/05 09:44:06;;;;;;;37.38;21.08;;;;;;;2.85;65.48;100131.03;10442690;28;20495;-72
2022/12/05 09:49:11;;;;;;;44.55;24.73;;;;;;;2.92;65.55;100130.88;10435947;28;20067;-70
2022/12/05 09:54:14;;;;;;;39.25;22.30;;;;;;;3.09;65.35;100132.16;10436989;28;20320;-71
2022/12/05 09:59:17;;;;;;;39.67;23.85;;;;;;;3.16;65.15;100126.78;10445552;28;20485;-72
2022/12/05 10:04:34;;;;;;;43.88;28.25;;;;;;;3.07;65.08;100123.59;10434608;28;20045;-71
2022/12/05 10:09:53;;;;;;;49.53;28.15;;;;;;;2.86;65.40;100118.09;10429293;28;20607;-72
2022/12/05 10:15:21;;;;;;;39.35;24.67;;;;;;;2.96;65.45;100116.97;10428212;28;20057;-72
2022/12/05 10:20:36;;;;;;;37.95;22.50;;;;;;;3.26;65.19;100117.03;10428188;28;20064;-72
2022/12/05 10:25:39;;;;;;;40.17;24.20;;;;;;;3.54;64.73;100103.31;10426511;28;20045;-72
2022/12/05 10:30:41;;;;;;;35.53;24.23;;;;;;;3.58;64.62;100117.00;10428064;28;20060;-72
2022/12/05 10:35:43;;;;;;;43.20;26.83;;;;;;;3.54;64.72;100113.66;10427491;28;20408;-72
2022/12/05 10:40:51;;;;;;;53.63;32.13;;;;;;;3.46;64.69;100112.16;10436611;28;20052;-72
2022/12/05 10:45:54;;;;;;;39.70;25.92;;;;;;;3.50;64.70;100112.03;10467661;28;20053;-71
2022/12/05 10:50:56;;;;;;;43.13;26.77;;;;;;;3.71;64.70;100100.25;10428899;28;20049;-72
2022/12/05 10:55:58;;;;;;;40.78;26.13;;;;;;;3.96;64.22;100101.25;10432402;28;20049;-71
2022/12/05 11:01:21;;;;;;;34.25;21.90;;;;;;;4.07;63.89;100103.53;10433136;28;20484;-72
2022/12/05 11:06:26;;;;;;;22.95;15.45;;;;;;;4.08;64.01;100095.69;10426290;28;20493;-71
2022/12/05 11:11:32;;;;;;;19.63;14.43;;;;;;;4.14;63.78;100100.69;10436522;28;20099;-71
2022/12/05 11:16:37;;;;;;;22.23;16.05;;;;;;;4.11;63.72;100095.59;10433145;28;20049;-71
2022/12/05 11:21:42;;;;;;;20.85;15.05;;;;;;;4.15;64.00;100094.59;10426828;28;20445;-71
2022/12/05 11:26:44;;;;;;;26.23;17.25;;;;;;;4.11;63.89;100095.59;10426621;28;20520;-71
2022/12/05 11:31:51;;;;;;;20.90;15.23;;;;;;;4.09;63.60;100096.56;10439723;28;20053;-70
2022/12/05 11:37:05;;;;;;;22.05;15.82;;;;;;;4.13;63.80;100093.78;10425272;28;20305;-70
2022/12/05 11:42:42;;;;;;;21.92;15.82;;;;;;;4.26;63.51;100089.09;10439542;28;20052;-70
2022/12/05 11:47:50;;;;;;;18.95;13.55;;;;;;;4.32;63.04;100092.34;10434129;28;20837;-70
2022/12/05 11:53:07;;;;;;;24.67;16.15;;;;;;;4.36;63.75;100096.53;10434156;28;20412;-71
2022/12/05 11:58:45;;;;;;;25.42;17.55;;;;;;;4.22;63.94;100097.84;10431854;28;20056;-71
2022/12/05 12:04:22;;;;;;;23.33;16.50;;;;;;;4.01;64.28;100088.16;10433745;28;20055;-70
2022/12/05 12:09:42;;;;;;;24.75;16.05;;;;;;;3.98;64.89;100088.25;10436503;28;20048;-70
2022/12/05 12:15:02;;;;;;;28.00;19.70;;;;;;;3.93;65.03;100088.38;10430613;28;20497;-70
2022/12/05 12:20:29;;;;;;;27.75;18.33;;;;;;;3.91;65.38;100097.94;10459943;28;20325;-70
2022/12/05 12:25:41;;;;;;;20.13;14.50;;;;;;;3.96;65.32;100101.25;10434082;28;20485;-71
2022/12/05 12:31:10;;;;;;;21.13;15.38;;;;;;;4.00;65.12;100099.41;10437837;28;20045;-70
2022/12/05 12:36:25;;;;;;;17.38;13.23;;;;;;;4.05;65.23;100098.38;10433236;28;20048;-71
2022/12/05 12:41:45;;;;;;;19.45;13.63;;;;;;;3.99;65.16;100097.69;10433291;28;20053;-70
2022/12/05 12:46:58;;;;;;;19.30;13.38;;;;;;;4.04;65.26;100094.09;10432356;28;20045;-70
2022/12/05 12:52:11;;;;;;;16.15;11.45;;;;;;;3.98;65.39;100096.03;10455580;28;20045;-71
2022/12/05 12:57:41;;;;;;;18.20;12.57;;;;;;;4.01;65.20;100091.59;10430723;28;20396;-70
2022/12/05 13:02:50;;;;;;;17.42;12.48;;;;;;;4.07;65.40;100095.75;10436537;28;20049;-70
2022/12/05 13:08:00;;;;;;;24.33;17.90;;;;;;;3.89;65.77;100104.91;10429291;28;20040;-70
2022/12/05 13:13:05;;;;;;;21.58;15.07;;;;;;;3.81;66.04;100097.34;10431013;28;20044;-70
2022/12/05 13:18:14;;;;;;;18.67;13.73;;;;;;;3.92;66.17;100093.63;10432387;28;20056;-69
2022/12/05 13:23:19;;;;;;;24.95;17.75;;;;;;;4.10;65.92;100082.69;10430615;28;20052;-69
2022/12/05 13:28:58;;;;;;;19.42;13.93;;;;;;;4.11;65.82;100089.59;10442151;28;20061;-71
2022/12/05 13:34:00;;;;;;;20.90;14.88;;;;;;;4.25;65.71;100096.00;10428833;28;20048;-70
2022/12/05 13:44:41;;;;;;;22.73;15.32;;;;;;;4.09;66.03;100110.31;10430667;28;20057;-69
2022/12/05 13:50:02;;;;;;;23.65;16.30;;;;;;;3.98;66.35;100107.22;10434651;28;20041;-70
2022/12/05 13:55:17;;;;;;;16.77;12.53;;;;;;;3.92;66.59;100110.00;10430360;28;20072;-69
2022/12/05 14:00:25;;;;;;;18.92;13.27;;;;;;;4.01;66.31;100109.69;10441080;28;20162;-69
2022/12/05 14:05:40;;;;;;;21.15;14.40;;;;;;;3.99;66.47;100105.47;10446292;28;20045;-70
2022/12/05 14:10:41;;;;;;;20.65;14.35;;;;;;;3.97;66.53;100118.44;10470643;28;20321;-69
2022/12/05 14:15:44;;;;;;;25.92;17.13;;;;;;;3.93;66.54;100110.81;10436194;28;20055;-68
2022/12/05 14:20:48;;;;;;;26.33;17.60;;;;;;;3.86;66.79;100111.00;10470217;28;20343;-70
2022/12/05 14:26:14;;;;;;;22.60;14.98;;;;;;;3.86;66.86;100120.53;10429320;28;20053;-68
2022/12/05 14:31:22;;;;;;;25.08;16.80;;;;;;;3.91;66.91;100122.94;10467368;28;20047;-69
2022/12/05 14:36:29;;;;;;;27.00;17.40;;;;;;;3.92;66.75;100129.84;10435164;28;20056;-70
2022/12/05 14:41:34;;;;;;;27.40;17.77;;;;;;;3.90;66.97;100131.63;10427870;28;20044;-69
2022/12/05 14:46:36;;;;;;;27.98;18.50;;;;;;;3.91;66.99;100131.56;10438603;28;20063;-68
2022/12/05 14:51:40;;;;;;;34.63;20.05;;;;;;;3.94;66.67;100128.06;10462906;28;20782;-69
2022/12/05 14:56:53;;;;;;;30.73;19.00;;;;;;;3.90;66.93;100123.88;10468700;28;20053;-69
2022/12/05 15:01:59;;;;;;;28.42;17.02;;;;;;;3.96;66.91;100126.28;10461450;28;20470;-69
2022/12/05 15:07:07;;;;;;;25.75;17.05;;;;;;;3.99;66.83;100124.44;10468527;28;20053;-68
2022/12/05 15:12:45;;;;;;;21.67;14.73;;;;;;;3.85;67.11;100116.22;10459773;28;20052;-69
2022/12/05 15:18:08;;;;;;;48.40;24.23;;;;;;;3.91;67.05;100128.97;10467031;28;20059;-68
2022/12/05 15:23:44;;;;;;;36.53;20.08;;;;;;;3.85;67.21;100122.25;10427182;28;20512;-68
2022/12/05 15:29:00;;;;;;;36.63;21.27;;;;;;;3.78;67.47;100130.22;10467931;28;20492;-69
2022/12/05 15:34:10;;;;;;;35.00;20.27;;;;;;;3.80;67.23;100129.25;10440098;28;20056;-70
2022/12/05 15:39:27;;;;;;;26.90;18.05;;;;;;;3.75;67.62;100127.72;10466633;28;20049;-68
2022/12/05 15:44:29;;;;;;;31.73;19.48;;;;;;;3.86;67.42;100141.22;10436130;28;20053;-69
2022/12/05 15:49:38;;;;;;;46.65;22.17;;;;;;;3.92;67.12;100141.03;10425710;28;20452;-69
2022/12/05 15:54:41;;;;;;;31.67;18.02;;;;;;;3.92;67.16;100146.22;10434820;28;20053;-69
2022/12/05 16:00:00;;;;;;;30.33;18.00;;;;;;;3.89;67.41;100148.88;10426477;28;20057;-68
2022/12/05 16:05:02;;;;;;;47.40;22.23;;;;;;;3.93;67.13;100162.56;10431256;28;20060;-69
2022/12/05 16:10:05;;;;;;;46.58;23.38;;;;;;;3.93;67.12;100157.38;10425788;28;20045;-69
2022/12/05 16:15:26;;;;;;;38.53;21.80;;;;;;;3.81;67.30;100162.00;10451424;28;20469;-69
2022/12/05 16:20:32;;;;;;;34.75;22.38;;;;;;;3.74;67.49;100152.72;10456536;28;20358;-70
2022/12/05 16:25:35;;;;;;;30.42;18.20;;;;;;;3.79;67.58;100155.19;10469315;28;20404;-69
2022/12/05 16:30:37;;;;;;;39.85;21.75;;;;;;;3.81;67.63;100158.56;10463532;28;20053;-70
2022/12/05 16:35:44;;;;;;;52.67;28.90;;;;;;;3.81;67.67;100161.16;10433231;28;20055;-69
2022/12/05 16:40:55;;;;;;;38.70;21.45;;;;;;;3.78;67.77;100163.84;10462239;28;20413;-69
2022/12/05 16:46:12;;;;;;;28.00;17.88;;;;;;;3.76;67.89;100168.22;10446775;28;20493;-69
2022/12/05 16:51:20;;;;;;;37.83;22.00;;;;;;;3.85;67.89;100170.56;10433309;28;20053;-71
2022/12/05 16:56:28;;;;;;;33.60;20.30;;;;;;;3.92;67.76;100164.34;10443432;28;20083;-70
2022/12/05 17:01:30;;;;;;;30.33;18.25;;;;;;;3.95;67.57;100177.16;10436325;28;20076;-70
2022/12/05 17:06:39;;;;;;;31.02;19.25;;;;;;;3.88;67.79;100172.22;10430813;28;20049;-70
2022/12/05 17:11:43;;;;;;;37.28;20.77;;;;;;;3.93;67.71;100171.19;10434984;28;20056;-70
2022/12/05 17:16:45;;;;;;;42.67;22.98;;;;;;;3.97;67.69;100177.97;10432898;28;20049;-64
2022/12/05 17:21:47;;;;;;;35.70;18.67;;;;;;;3.88;67.71;100177.38;10456237;28;20114;-64
2022/12/05 17:26:49;;;;;;;32.95;19.15;;;;;;;3.78;68.04;100174.19;10428324;28;20057;-64
2022/12/05 17:31:50;;;;;;;51.35;23.38;;;;;;;3.79;67.96;100173.28;10430701;28;20053;-64
2022/12/05 17:36:52;;;;;;;27.27;19.30;;;;;;;3.74;68.32;100170.00;10427468;28;20127;-64
2022/12/05 17:41:54;;;;;;;28.75;18.30;;;;;;;3.74;68.32;100177.75;10429976;28;20164;-63
2022/12/05 17:46:56;;;;;;;51.42;21.67;;;;;;;3.74;68.25;100180.34;10432210;28;20516;-64
2022/12/05 17:52:03;;;;;;;28.38;17.73;;;;;;;3.73;68.29;100188.97;10443502;28;20496;-64
2022/12/05 17:57:23;;;;;;;31.73;17.58;;;;;;;3.67;68.39;100187.41;10429333;28;20045;-64
2022/12/05 18:02:25;;;;;;;43.65;20.98;;;;;;;3.68;68.36;100189.09;10428905;28;20055;-64
2022/12/05 18:07:26;;;;;;;24.75;16.48;;;;;;;3.68;68.40;100188.28;10428424;28;20056;-64
2022/12/05 18:12:28;;;;;;;27.50;16.77;;;;;;;3.75;68.22;100187.19;10430436;28;20140;-64
2022/12/05 18:17:30;;;;;;;29.33;17.05;;;;;;;3.74;68.14;100188.09;10443460;28;20593;-64
2022/12/05 18:22:32;;;;;;;39.33;24.05;;;;;;;3.59;68.37;100194.53;10428225;28;20417;-64
2022/12/05 18:27:35;;;;;;;43.05;22.40;;;;;;;3.65;68.40;100198.69;10466182;28;20523;-64
2022/12/05 18:32:37;;;;;;;24.48;16.40;;;;;;;3.64;68.43;100197.84;10441282;28;20501;-64
2022/12/05 18:37:39;;;;;;;28.92;17.75;;;;;;;3.60;68.29;100190.22;10440999;28;20051;-64
2022/12/05 18:42:40;;;;;;;28.23;17.00;;;;;;;3.59;68.51;100183.34;10428310;28;20286;-64
2022/12/05 18:47:42;;;;;;;27.70;17.65;;;;;;;3.61;68.52;100186.75;10426863;28;20045;-64
2022/12/05 18:52:45;;;;;;;36.05;20.52;;;;;;;3.60;68.56;100182.47;10446751;28;20052;-64
2022/12/05 18:57:46;;;;;;;32.15;19.23;;;;;;;3.56;68.58;100180.81;10445646;28;20059;-64
2022/12/05 19:02:48;;;;;;;30.98;17.80;;;;;;;3.54;68.50;100174.84;10433813;28;20308;-63
2022/12/05 19:07:53;;;;;;;26.15;15.98;;;;;;;3.52;68.59;100179.22;10425464;28;20048;-64
2022/12/05 19:12:56;;;;;;;18.73;12.77;;;;;;;3.50;68.60;100183.59;10435961;28;20083;-64
2022/12/05 19:17:57;;;;;;;21.80;13.85;;;;;;;3.54;68.40;100187.78;10435277;28;20366;-64
2022/12/05 19:22:59;;;;;;;19.02;12.60;;;;;;;3.55;68.55;100192.06;10426294;28;20067;-64
2022/12/05 19:28:01;;;;;;;22.00;13.27;;;;;;;3.60;68.53;100192.81;10435736;28;20060;-64
2022/12/05 19:33:03;;;;;;;19.15;12.88;;;;;;;3.62;68.31;100198.78;10425815;28;20068;-64
2022/12/05 19:38:05;;;;;;;18.45;12.43;;;;;;;3.61;68.42;100197.94;10427546;28;20049;-64
2022/12/05 19:43:06;;;;;;;20.90;12.65;;;;;;;3.68;68.26;100196.03;10440171;28;20413;-63
2022/12/05 19:48:08;;;;;;;17.90;12.13;;;;;;;3.67;68.36;100202.09;10425491;28;20408;-63
2022/12/05 19:53:11;;;;;;;18.40;10.95;;;;;;;3.73;68.19;100207.94;10437940;28;20051;-64
2022/12/05 19:58:12;;;;;;;28.23;14.35;;;;;;;3.84;67.96;100225.78;10422579;28;20060;-63
2022/12/05 20:03:14;;;;;;;15.95;11.23;;;;;;;3.91;67.78;100229.03;10427742;28;20049;-63
2022/12/05 20:08:16;;;;;;;17.02;12.43;;;;;;;3.81;67.90;100223.25;10430747;28;20049;-63
2022/12/05 20:13:21;;;;;;;15.73;11.45;;;;;;;3.77;67.78;100219.91;10430828;28;20049;-63
2022/12/05 20:18:43;;;;;;;16.30;11.38;;;;;;;3.74;67.97;100219.97;10435251;28;20106;-63
2022/12/05 20:23:45;;;;;;;18.48;12.52;;;;;;;3.77;68.19;100219.91;10442554;28;20060;-62
2022/12/05 20:28:47;;;;;;;13.43;9.30;;;;;;;3.72;68.28;100215.75;10463734;28;20052;-63
2022/12/05 20:33:51;;;;;;;14.35;10.43;;;;;;;3.78;68.18;100221.59;10430238;28;21330;-63
2022/12/05 20:38:58;;;;;;;12.93;8.70;;;;;;;3.86;68.20;100224.00;10436209;28;20060;-62
2022/12/05 20:44:02;;;;;;;11.88;8.38;;;;;;;3.77;68.05;100237.16;10450738;28;20076;-62
2022/12/05 20:49:04;;;;;;;13.02;8.95;;;;;;;3.71;68.08;100237.31;10445652;28;20049;-63
2022/12/05 20:54:06;;;;;;;13.82;9.23;;;;;;;3.73;67.95;100228.63;10431567;28;20068;-62
2022/12/05 20:59:10;;;;;;;15.57;9.45;;;;;;;3.59;67.91;100228.16;10432604;28;20143;-62
2022/12/05 21:04:12;;;;;;;15.07;10.18;;;;;;;3.66;67.86;100224.50;10432100;28;20135;-62
2022/12/05 21:09:17;;;;;;;31.58;19.50;;;;;;;3.65;67.81;100227.13;10430716;28;20045;-62
2022/12/05 21:14:19;;;;;;;30.77;17.42;;;;;;;3.69;67.72;100221.00;10432084;28;20085;-61
2022/12/05 21:19:21;;;;;;;62.88;37.70;;;;;;;3.65;67.56;100228.00;10434471;28;20061;-62
2022/12/05 21:24:22;;;;;;;19.10;14.25;;;;;;;3.57;67.53;100232.53;10433601;28;20435;-62
2022/12/05 21:29:24;;;;;;;16.10;11.55;;;;;;;3.57;67.60;100226.50;10428953;28;20053;-65
2022/12/05 21:34:26;;;;;;;16.90;11.25;;;;;;;3.60;67.33;100224.66;10440214;28;20049;-63
2022/12/05 21:39:27;;;;;;;14.88;10.45;;;;;;;3.56;67.31;100214.44;10430638;28;20500;-62
2022/12/05 21:44:29;;;;;;;16.33;10.98;;;;;;;3.55;67.42;100212.75;10439572;28;20056;-62
2022/12/05 21:49:30;;;;;;;15.73;11.20;;;;;;;3.54;67.40;100216.22;10437842;28;20060;-62
2022/12/05 21:54:32;;;;;;;16.70;11.40;;;;;;;3.56;67.35;100220.47;10428530;28;20070;-63
2022/12/05 21:59:34;;;;;;;15.65;10.68;;;;;;;3.60;67.01;100221.25;10431114;28;20045;-63
2022/12/05 22:04:36;;;;;;;18.33;11.40;;;;;;;3.62;67.15;100224.66;10438030;28;20391;-62
2022/12/05 22:09:38;;;;;;;15.68;10.25;;;;;;;3.63;67.02;100216.00;10433169;28;20067;-63
2022/12/05 22:14:41;;;;;;;16.27;10.43;;;;;;;3.62;66.70;100219.47;10431886;28;20070;-62
2022/12/05 22:19:43;;;;;;;17.85;11.50;;;;;;;3.66;66.78;100221.91;10431236;28;20480;-63
2022/12/05 22:24:45;;;;;;;20.33;12.93;;;;;;;3.64;66.70;100223.69;10428332;28;20045;-62
2022/12/05 22:29:47;;;;;;;18.05;12.05;;;;;;;3.63;66.92;100228.91;10427668;28;20523;-62
2022/12/05 22:34:53;;;;;;;21.95;11.93;;;;;;;3.53;66.69;100230.06;10436492;28;20052;-62
2022/12/05 22:39:59;;;;;;;32.38;14.48;;;;;;;3.62;66.64;100230.66;10449481;28;20064;-63
2022/12/05 22:45:01;;;;;;;15.23;9.77;;;;;;;3.41;66.43;100231.25;10428394;28;20485;-63
2022/12/05 22:50:03;;;;;;;13.13;8.93;;;;;;;3.44;66.70;100225.13;10431083;28;20048;-62
2022/12/05 22:55:05;;;;;;;13.18;8.23;;;;;;;3.31;66.82;100223.75;10427322;28;20041;-63
2022/12/05 23:00:07;;;;;;;16.17;9.52;;;;;;;3.27;66.93;100217.81;10433303;28;20057;-63
2022/12/05 23:05:09;;;;;;;17.05;9.18;;;;;;;3.33;66.77;100211.63;10430825;28;20056;-63
2022/12/05 23:10:11;;;;;;;12.00;8.35;;;;;;;3.37;66.51;100215.84;10427226;28;20378;-62
2022/12/05 23:15:13;;;;;;;13.32;9.05;;;;;;;3.38;66.44;100222.69;10428253;28;20041;-62
2022/12/05 23:20:15;;;;;;;11.32;7.75;;;;;;;3.40;66.44;100215.75;10427729;28;20148;-62
2022/12/05 23:25:17;;;;;;;14.85;9.15;;;;;;;3.42;66.21;100216.56;10425816;28;20060;-62
2022/12/05 23:30:18;;;;;;;16.20;10.43;;;;;;;3.44;66.05;100219.94;10434358;28;20075;-62